Colchester, Vermont
Current Conditions -  °F | °C
As of 6:54 AM on Saturday 01 Nov 2014 (Local Time) from KBTV Reporting Station
Overcast Overcast  
Wind Chill: 34°   Ceiling: 6000
Heat Index: 34°   Visibility: 10mi
Dew Point: 28°   Wind: 3mph
Humidity: 79%   Direction: NA
Pressure: 30.05"   Gusts: NA
Location:  44.54°N, 73.15°W
Report Text: KBTV 011054Z VRB03KT 10SM OVC060 01/M02 A3005 RMK AO2 SLP180 T00111022
Loading
Personal Weather Stations






























Interactive Weather Map
Tropical Storm Tracking
New forecast layout! Learn more

10-Day Weather Forecast

Advertisements
Track Severe Weather on mobile